Time;durP1;ratioP1;P1;durP2;ratioP2;P2;SDS_P1;SDS_P2;PMS_P1;PMS_P2;Temp;Humidity;BMP_temperature;BMP_pressure;BME280_temperature;BME280_humidity;BME280_pressure;Samples;Min_cycle;Max_cycle;Signal;HPM_P1;HPM_P2
2023/02/24 00:00:29;;;;;;;11.10;7.60;;;8.50;99.90;;;;;;5052081;28;20637;-68
2023/02/24 00:02:58;;;;;;;10.50;6.00;;;8.50;99.90;;;;;;5032192;28;20623;-66
2023/02/24 00:05:25;;;;;;;10.20;6.87;;;8.50;99.90;;;;;;5042359;28;20654;-68
2023/02/24 00:07:52;;;;;;;8.07;5.30;;;8.50;99.90;;;;;;5046481;28;20696;-67
2023/02/24 00:10:20;;;;;;;14.67;9.50;;;8.40;99.90;;;;;;5029935;28;20636;-67
2023/02/24 00:12:48;;;;;;;9.90;6.93;;;8.40;99.90;;;;;;5030028;28;20680;-66
2023/02/24 00:15:15;;;;;;;14.13;9.00;;;8.40;99.90;;;;;;5041013;28;20711;-68
2023/02/24 00:17:43;;;;;;;9.70;6.43;;;8.30;99.90;;;;;;5033715;28;20640;-67
2023/02/24 00:20:15;;;;;;;8.77;7.27;;;8.40;99.90;;;;;;5046139;28;20671;-66
2023/02/24 00:22:43;;;;;;;7.27;5.80;;;8.30;99.90;;;;;;5036491;28;20738;-66
2023/02/24 00:25:11;;;;;;;11.90;6.90;;;8.40;99.90;;;;;;5040830;28;20666;-66
2023/02/24 00:27:38;;;;;;;16.53;7.20;;;8.20;99.90;;;;;;5044539;28;20623;-66
2023/02/24 00:30:06;;;;;;;11.10;7.07;;;8.20;99.90;;;;;;5046354;28;20626;-66
2023/02/24 00:32:34;;;;;;;10.00;6.37;;;8.30;99.90;;;;;;5038243;28;20625;-68
2023/02/24 00:35:01;;;;;;;12.50;6.57;;;8.30;99.90;;;;;;5027278;28;21236;-68
2023/02/24 00:37:30;;;;;;;7.33;5.03;;;8.30;99.90;;;;;;5042406;28;20638;-66
2023/02/24 00:39:57;;;;;;;10.87;8.10;;;8.30;99.90;;;;;;5046064;28;20666;-66
2023/02/24 00:42:24;;;;;;;11.73;6.10;;;8.40;99.90;;;;;;5026577;28;20713;-66
2023/02/24 00:44:52;;;;;;;8.90;6.50;;;8.40;99.90;;;;;;5046272;28;20618;-67
2023/02/24 00:47:21;;;;;;;12.57;6.87;;;8.40;99.90;;;;;;5031677;28;20762;-67
2023/02/24 00:49:49;;;;;;;11.37;5.47;;;8.30;99.90;;;;;;5046361;28;20734;-67
2023/02/24 00:52:17;;;;;;;15.80;6.87;;;8.30;99.90;;;;;;5039567;28;20658;-68
2023/02/24 00:54:47;;;;;;;7.20;6.00;;;8.40;99.90;;;;;;5027295;28;20625;-66
2023/02/24 00:57:15;;;;;;;8.07;7.17;;;8.30;99.90;;;;;;5038928;28;20773;-66
2023/02/24 00:59:46;;;;;;;11.30;7.60;;;8.30;99.90;;;;;;5049821;28;20665;-66
2023/02/24 01:02:13;;;;;;;11.47;6.20;;;8.30;99.90;;;;;;5034827;28;20700;-68
2023/02/24 01:04:40;;;;;;;9.97;7.87;;;8.40;99.90;;;;;;5050661;28;20636;-67
2023/02/24 01:07:09;;;;;;;8.83;6.30;;;8.40;99.90;;;;;;5043741;28;21010;-68
2023/02/24 01:09:37;;;;;;;12.90;7.00;;;8.30;99.90;;;;;;5042462;28;20990;-66
2023/02/24 01:14:54;;;;;;;8.67;7.50;;;8.40;99.90;;;;;;5035800;28;20623;-67
2023/02/24 01:17:22;;;;;;;10.33;7.07;;;8.40;99.90;;;;;;5043663;28;21009;-68
2023/02/24 01:19:49;;;;;;;8.07;6.50;;;8.40;99.90;;;;;;5050079;28;20685;-66
2023/02/24 01:22:18;;;;;;;10.87;6.77;;;8.40;99.90;;;;;;5048055;28;20677;-68
2023/02/24 01:24:45;;;;;;;22.70;7.47;;;8.30;99.90;;;;;;5035235;28;20643;-66
2023/02/24 01:27:16;;;;;;;11.47;7.77;;;8.40;99.90;;;;;;5050077;28;20645;-67
2023/02/24 01:29:43;;;;;;;12.90;8.77;;;8.40;99.90;;;;;;5046566;28;20630;-66
2023/02/24 01:32:15;;;;;;;16.30;7.03;;;8.40;99.90;;;;;;5035700;28;20666;-67
2023/02/24 01:34:42;;;;;;;6.93;6.07;;;8.40;99.90;;;;;;5050292;28;20645;-66
2023/02/24 01:37:09;;;;;;;11.10;7.43;;;8.40;99.90;;;;;;5035989;28;20738;-68
2023/02/24 01:39:36;;;;;;;11.40;6.37;;;8.40;99.90;;;;;;5037238;28;21629;-66
2023/02/24 01:42:05;;;;;;;12.17;7.30;;;8.40;99.90;;;;;;5060508;28;20658;-66
2023/02/24 01:45:11;;;;;;;14.07;7.20;;;8.30;99.90;;;;;;5033994;28;20610;-66
2023/02/24 01:47:43;;;;;;;8.80;5.70;;;8.40;99.90;;;;;;5048681;28;20648;-66
2023/02/24 01:50:13;;;;;;;8.70;5.33;;;8.40;99.90;;;;;;5046485;28;20696;-66
2023/02/24 01:52:45;;;;;;;12.53;9.43;;;8.30;99.90;;;;;;5029654;28;20734;-67
2023/02/24 01:55:18;;;;;;;9.23;7.13;;;8.30;99.90;;;;;;5044723;28;20618;-66
2023/02/24 01:57:47;;;;;;;8.50;5.07;;;8.30;99.90;;;;;;5049725;28;20707;-67
2023/02/24 02:00:31;;;;;;;9.47;6.37;;;8.30;99.90;;;;;;5039455;28;21588;-66
2023/02/24 02:03:03;;;;;;;10.43;5.53;;;8.30;99.90;;;;;;5039472;28;20734;-66
2023/02/24 02:05:30;;;;;;;9.53;7.00;;;8.20;99.90;;;;;;5033252;28;20646;-68
2023/02/24 02:07:57;;;;;;;10.03;6.70;;;8.30;99.90;;;;;;5028782;28;20655;-66
2023/02/24 02:10:27;;;;;;;13.13;6.77;;;8.30;99.90;;;;;;5044322;28;20673;-67
2023/02/24 02:12:55;;;;;;;4.90;4.50;;;8.30;99.90;;;;;;5043255;28;20634;-66
2023/02/24 02:15:23;;;;;;;8.90;5.40;;;8.20;99.90;;;;;;5029538;28;20929;-67
2023/02/24 02:18:00;;;;;;;12.13;6.10;;;8.20;99.90;;;;;;5042597;28;20637;-66
2023/02/24 02:21:08;;;;;;;9.03;7.07;;;8.30;99.90;;;;;;5046781;28;21280;-68
2023/02/24 02:24:04;;;;;;;14.57;8.30;;;8.20;99.90;;;;;;5032187;28;20729;-66
2023/02/24 02:27:05;;;;;;;11.90;7.47;;;8.20;99.90;;;;;;5031933;28;20658;-66
2023/02/24 02:30:03;;;;;;;9.20;6.53;;;8.20;99.90;;;;;;5029348;28;20705;-66
2023/02/24 02:33:00;;;;;;;7.53;6.70;;;8.20;99.90;;;;;;5037743;28;20626;-66
2023/02/24 02:35:36;;;;;;;9.37;6.60;;;8.20;99.90;;;;;;5024657;28;21423;-68
2023/02/24 02:38:13;;;;;;;11.87;6.00;;;8.10;99.90;;;;;;5039329;28;20729;-67
2023/02/24 02:40:48;;;;;;;8.50;7.60;;;8.20;99.90;;;;;;5048255;28;20662;-69
2023/02/24 02:43:24;;;;;;;10.53;6.00;;;8.10;99.90;;;;;;5048285;28;20633;-66
2023/02/24 02:45:57;;;;;;;9.07;6.23;;;8.10;99.90;;;;;;5046732;28;20737;-68
2023/02/24 02:48:32;;;;;;;10.23;5.27;;;8.20;99.90;;;;;;5028887;28;20630;-66
2023/02/24 02:51:09;;;;;;;7.73;6.60;;;8.10;99.90;;;;;;5038023;28;20758;-66
2023/02/24 02:53:44;;;;;;;8.03;6.50;;;8.10;99.90;;;;;;5048703;28;20757;-66
2023/02/24 02:56:17;;;;;;;8.57;5.60;;;8.10;99.90;;;;;;5033186;28;20731;-68
2023/02/24 02:58:48;;;;;;;8.37;6.70;;;8.10;99.90;;;;;;5055996;28;20671;-66
2023/02/24 03:01:19;;;;;;;10.40;7.90;;;8.00;99.90;;;;;;5033365;28;20658;-66
2023/02/24 03:03:50;;;;;;;13.63;7.30;;;8.10;99.90;;;;;;5028925;28;20619;-66
2023/02/24 03:06:24;;;;;;;8.37;4.57;;;8.00;99.90;;;;;;5033251;28;20656;-66
2023/02/24 03:08:56;;;;;;;7.50;5.80;;;8.10;99.90;;;;;;5047282;28;20617;-66
2023/02/24 03:11:23;;;;;;;10.03;6.60;;;8.10;99.90;;;;;;5048085;28;20662;-66
2023/02/24 03:13:54;;;;;;;8.67;6.93;;;8.00;99.90;;;;;;5048420;28;20646;-66
2023/02/24 03:16:23;;;;;;;8.13;5.57;;;8.00;99.90;;;;;;5040606;28;20658;-66
2023/02/24 03:18:55;;;;;;;11.87;7.10;;;7.90;99.90;;;;;;5027246;28;20600;-66
2023/02/24 03:21:31;;;;;;;10.00;5.70;;;7.90;99.90;;;;;;5029044;28;20709;-66
2023/02/24 03:24:01;;;;;;;9.07;5.30;;;8.00;99.90;;;;;;5039628;28;20699;-66
2023/02/24 03:26:32;;;;;;;10.93;5.37;;;8.00;99.90;;;;;;5028024;28;20728;-68
2023/02/24 03:29:09;;;;;;;10.13;7.17;;;8.00;99.90;;;;;;5031943;28;20700;-66
2023/02/24 03:31:45;;;;;;;7.90;5.87;;;8.10;99.90;;;;;;5036282;28;20649;-66
2023/02/24 03:34:18;;;;;;;11.00;5.53;;;8.00;99.90;;;;;;5039934;28;20628;-66
2023/02/24 03:36:47;;;;;;;11.97;5.67;;;8.00;99.90;;;;;;5027707;28;20678;-67
2023/02/24 03:39:14;;;;;;;8.57;7.07;;;8.10;99.90;;;;;;5042218;28;20658;-67
2023/02/24 03:41:49;;;;;;;15.57;6.83;;;8.10;99.90;;;;;;5044530;28;20764;-67
2023/02/24 03:44:16;;;;;;;11.50;5.80;;;8.10;99.90;;;;;;5043811;28;20722;-66
2023/02/24 03:46:44;;;;;;;8.87;6.27;;;8.10;99.90;;;;;;5027388;28;20667;-68
2023/02/24 03:49:15;;;;;;;11.47;8.23;;;8.10;99.90;;;;;;5032986;28;21119;-66
2023/02/24 03:51:58;;;;;;;10.10;6.03;;;8.10;99.90;;;;;;5027312;28;20746;-68
2023/02/24 03:54:41;;;;;;;6.37;4.87;;;8.10;99.90;;;;;;5033152;28;20708;-67
2023/02/24 03:57:21;;;;;;;7.43;6.17;;;8.20;99.90;;;;;;5046149;28;20658;-68
2023/02/24 04:00:15;;;;;;;16.40;7.47;;;8.20;99.90;;;;;;5055636;28;20752;-66
2023/02/24 04:02:46;;;;;;;19.03;6.93;;;8.10;99.90;;;;;;5026550;28;20667;-67
2023/02/24 04:05:19;;;;;;;12.50;6.60;;;8.10;99.90;;;;;;5032928;28;21257;-66
2023/02/24 04:07:57;;;;;;;8.43;6.40;;;8.10;99.90;;;;;;5026538;28;20619;-67
2023/02/24 04:10:30;;;;;;;15.67;5.70;;;8.10;99.90;;;;;;5046013;28;21207;-67
2023/02/24 04:13:04;;;;;;;8.93;6.07;;;8.20;99.90;;;;;;5026534;28;21347;-66
2023/02/24 04:15:37;;;;;;;13.50;6.43;;;8.10;99.90;;;;;;5026439;28;21027;-68
2023/02/24 04:18:08;;;;;;;9.50;8.03;;;8.10;99.90;;;;;;5043976;28;20614;-68
2023/02/24 04:20:38;;;;;;;16.27;9.73;;;8.20;99.90;;;;;;5046521;28;21215;-67
2023/02/24 04:23:10;;;;;;;7.70;5.87;;;8.20;99.90;;;;;;5031940;28;20730;-66
2023/02/24 04:25:39;;;;;;;9.10;6.20;;;8.20;99.90;;;;;;5032299;28;20678;-67
2023/02/24 04:28:07;;;;;;;13.50;6.43;;;8.20;99.90;;;;;;5029319;28;21263;-66
2023/02/24 04:30:36;;;;;;;13.60;7.07;;;8.10;99.90;;;;;;5046800;28;20749;-68
2023/02/24 04:33:03;;;;;;;17.90;7.83;;;8.10;99.90;;;;;;5032243;28;20653;-67
2023/02/24 04:35:31;;;;;;;12.93;6.90;;;8.10;99.90;;;;;;5039908;28;21308;-67
2023/02/24 04:37:59;;;;;;;12.63;7.37;;;8.10;99.90;;;;;;5026799;28;20642;-68
2023/02/24 04:40:27;;;;;;;12.10;6.93;;;8.10;99.90;;;;;;5035011;28;20678;-67
2023/02/24 04:42:55;;;;;;;8.23;6.57;;;8.10;99.90;;;;;;5032548;28;20953;-66
2023/02/24 04:45:24;;;;;;;11.23;7.60;;;8.00;99.90;;;;;;5043260;28;20642;-68
2023/02/24 04:47:55;;;;;;;10.27;5.80;;;8.00;99.90;;;;;;5044649;28;20634;-66
2023/02/24 04:50:24;;;;;;;14.80;6.90;;;8.00;99.90;;;;;;5031135;28;20671;-68
2023/02/24 04:52:52;;;;;;;16.70;9.23;;;8.10;99.90;;;;;;5037082;28;20668;-66
2023/02/24 04:55:21;;;;;;;6.23;5.57;;;8.10;99.90;;;;;;5046804;28;21198;-66
2023/02/24 04:57:49;;;;;;;8.47;6.27;;;8.10;99.90;;;;;;5046060;28;20611;-66
2023/02/24 05:00:21;;;;;;;14.13;7.27;;;7.90;99.90;;;;;;5051896;28;20671;-66
2023/02/24 05:02:48;;;;;;;9.70;6.43;;;8.00;99.90;;;;;;5027761;28;20623;-66
2023/02/24 05:05:16;;;;;;;8.63;7.00;;;8.00;99.90;;;;;;5026592;28;20615;-66
2023/02/24 05:07:46;;;;;;;14.30;6.57;;;8.10;99.90;;;;;;5036582;28;20638;-67
2023/02/24 05:10:14;;;;;;;13.40;8.07;;;8.00;99.90;;;;;;5026885;28;20627;-67
2023/02/24 05:12:41;;;;;;;16.13;5.60;;;8.00;99.90;;;;;;5030237;28;21259;-68
2023/02/24 05:15:10;;;;;;;14.20;8.57;;;7.90;99.90;;;;;;5046173;28;20620;-68
2023/02/24 05:17:37;;;;;;;11.67;7.70;;;8.00;99.90;;;;;;5029812;28;20693;-68
2023/02/24 05:22:51;;;;;;;12.13;7.90;;;8.00;99.90;;;;;;5039321;28;20634;-67
2023/02/24 05:25:18;;;;;;;14.83;9.57;;;8.10;99.90;;;;;;5041365;28;20638;-68
2023/02/24 05:27:46;;;;;;;14.67;7.30;;;8.00;99.90;;;;;;5039942;28;20703;-67
2023/02/24 05:30:15;;;;;;;10.30;6.80;;;8.00;99.90;;;;;;5040542;28;20793;-70
2023/02/24 05:32:42;;;;;;;12.20;7.10;;;8.00;99.90;;;;;;5036088;28;21282;-68
2023/02/24 05:35:10;;;;;;;17.10;7.27;;;8.00;99.90;;;;;;5040968;28;20635;-68
2023/02/24 05:37:41;;;;;;;16.40;9.00;;;8.00;99.90;;;;;;5027069;28;20651;-68
2023/02/24 05:40:12;;;;;;;13.63;8.37;;;8.00;99.90;;;;;;5047757;28;20652;-68
2023/02/24 05:42:40;;;;;;;10.83;7.90;;;8.00;99.90;;;;;;5030790;28;20639;-68
2023/02/24 05:45:09;;;;;;;15.13;9.30;;;8.00;99.90;;;;;;5033824;28;20619;-68
2023/02/24 05:47:38;;;;;;;8.80;5.17;;;8.00;99.90;;;;;;5034091;28;20627;-67
2023/02/24 05:50:08;;;;;;;17.57;9.23;;;8.00;99.90;;;;;;5030981;28;20629;-67
2023/02/24 05:52:36;;;;;;;15.50;8.33;;;8.00;99.90;;;;;;5040873;28;20658;-68
2023/02/24 05:55:06;;;;;;;13.77;8.80;;;8.00;99.90;;;;;;5032733;28;21104;-68
2023/02/24 05:57:34;;;;;;;14.63;7.40;;;8.00;99.90;;;;;;5036298;28;20635;-68
2023/02/24 06:00:11;;;;;;;19.20;9.30;;;8.00;99.90;;;;;;5062967;28;20701;-68
2023/02/24 06:02:46;;;;;;;17.00;8.87;;;8.10;99.90;;;;;;5044965;28;20662;-68
2023/02/24 06:05:24;;;;;;;7.93;6.43;;;8.10;99.90;;;;;;5035946;28;21033;-69
2023/02/24 06:07:54;;;;;;;9.73;6.77;;;8.00;99.90;;;;;;5034430;28;22169;-69
2023/02/24 06:10:21;;;;;;;18.10;8.53;;;8.10;99.90;;;;;;5031108;28;20645;-66
2023/02/24 06:12:48;;;;;;;8.10;6.10;;;8.10;99.90;;;;;;5038237;28;20631;-67
2023/02/24 06:15:15;;;;;;;10.13;5.67;;;8.10;99.90;;;;;;5039275;28;20635;-67
2023/02/24 06:17:43;;;;;;;19.77;9.43;;;8.00;99.90;;;;;;5027937;28;20634;-68
2023/02/24 06:20:14;;;;;;;11.93;8.17;;;8.00;99.90;;;;;;5032673;28;20654;-69
2023/02/24 06:22:41;;;;;;;8.77;6.30;;;8.00;99.90;;;;;;5026933;28;20606;-68
2023/02/24 06:25:10;;;;;;;11.27;5.20;;;8.00;99.90;;;;;;5044983;28;20673;-68
2023/02/24 06:27:37;;;;;;;12.40;5.97;;;8.00;99.90;;;;;;5045055;28;21231;-68
2023/02/24 06:30:09;;;;;;;15.53;9.83;;;8.00;99.90;;;;;;5044763;28;20656;-68
2023/02/24 06:32:36;;;;;;;13.93;8.10;;;8.00;99.90;;;;;;5037251;28;20650;-68
2023/02/24 06:35:05;;;;;;;8.93;7.07;;;8.00;99.90;;;;;;5027308;28;20619;-68
2023/02/24 06:37:31;;;;;;;22.63;8.90;;;8.00;99.90;;;;;;5040804;28;21243;-69
2023/02/24 06:39:58;;;;;;;15.00;9.90;;;8.00;99.90;;;;;;5051889;28;20725;-68
2023/02/24 06:42:26;;;;;;;10.10;6.50;;;8.00;99.90;;;;;;5047456;28;20665;-68
2023/02/24 06:44:53;;;;;;;16.10;8.63;;;8.10;99.90;;;;;;5029072;28;20662;-68
2023/02/24 06:47:21;;;;;;;11.73;7.33;;;8.00;99.90;;;;;;5034313;28;20662;-69
2023/02/24 06:49:48;;;;;;;15.60;8.70;;;7.90;99.90;;;;;;5047424;28;20745;-69
2023/02/24 06:52:17;;;;;;;12.13;6.50;;;7.90;99.90;;;;;;5046345;28;21321;-68
2023/02/24 06:54:46;;;;;;;26.77;9.37;;;7.90;99.90;;;;;;5047274;28;20726;-68
2023/02/24 06:57:13;;;;;;;28.43;11.87;;;8.00;99.90;;;;;;5037114;28;20659;-68
2023/02/24 06:59:40;;;;;;;14.77;6.67;;;7.90;99.90;;;;;;5059067;28;20629;-67
2023/02/24 07:02:10;;;;;;;27.53;9.77;;;8.00;99.90;;;;;;5031924;28;20674;-68
2023/02/24 07:04:42;;;;;;;26.83;10.90;;;8.00;99.90;;;;;;5037744;28;21204;-69
2023/02/24 07:07:12;;;;;;;14.00;6.90;;;8.00;99.90;;;;;;5035759;28;20733;-68
2023/02/24 07:09:42;;;;;;;10.87;6.90;;;8.00;99.90;;;;;;5032171;28;20626;-67
2023/02/24 07:12:11;;;;;;;16.30;7.80;;;8.00;99.90;;;;;;5037387;28;20663;-68
2023/02/24 07:14:39;;;;;;;19.90;8.80;;;7.90;99.90;;;;;;5038135;28;21227;-68
2023/02/24 07:17:07;;;;;;;24.57;9.10;;;8.00;99.90;;;;;;5036234;28;21008;-68
2023/02/24 07:19:34;;;;;;;19.33;7.73;;;7.90;99.90;;;;;;5042994;28;20762;-68
2023/02/24 07:22:02;;;;;;;12.80;8.97;;;8.00;99.90;;;;;;5037298;28;20689;-67
2023/02/24 07:24:34;;;;;;;19.20;8.53;;;8.00;99.90;;;;;;5028500;28;20623;-68
2023/02/24 07:27:05;;;;;;;15.07;8.30;;;8.00;99.90;;;;;;5051819;28;20656;-68
2023/02/24 07:29:36;;;;;;;14.53;8.33;;;8.00;99.90;;;;;;5033285;28;20623;-68
2023/02/24 07:32:05;;;;;;;15.07;8.00;;;8.10;99.90;;;;;;5031746;28;21006;-69
2023/02/24 07:34:33;;;;;;;6.53;5.83;;;8.10;99.90;;;;;;5048145;28;20602;-68
2023/02/24 07:37:05;;;;;;;20.47;10.50;;;8.10;99.90;;;;;;5047847;28;21044;-68
2023/02/24 07:39:32;;;;;;;15.83;9.50;;;8.10;99.90;;;;;;5035084;28;20625;-68
2023/02/24 07:41:58;;;;;;;12.07;7.33;;;8.10;99.90;;;;;;5067583;28;20677;-68
2023/02/24 07:44:28;;;;;;;10.37;6.73;;;8.10;99.90;;;;;;5030710;28;20628;-68
2023/02/24 07:46:55;;;;;;;14.90;6.80;;;8.00;99.90;;;;;;5040059;28;20668;-68
2023/02/24 07:49:24;;;;;;;16.13;7.20;;;7.90;99.90;;;;;;5042898;28;20633;-68
2023/02/24 07:51:54;;;;;;;13.20;6.73;;;8.00;99.90;;;;;;5027858;28;20682;-69
2023/02/24 07:54:23;;;;;;;15.00;8.93;;;7.90;99.90;;;;;;5027806;28;20939;-68
2023/02/24 07:56:56;;;;;;;12.57;6.07;;;8.00;99.90;;;;;;5041508;28;20652;-68
2023/02/24 07:59:24;;;;;;;19.33;10.73;;;7.90;99.90;;;;;;5054887;28;20658;-68
2023/02/24 08:01:54;;;;;;;15.57;7.47;;;7.90;99.90;;;;;;5047742;28;21035;-68
2023/02/24 08:04:24;;;;;;;10.90;6.97;;;7.90;99.90;;;;;;5038748;28;20630;-69
2023/02/24 08:06:55;;;;;;;15.53;8.87;;;7.90;99.90;;;;;;5045950;28;20658;-68
2023/02/24 08:09:45;;;;;;;14.30;6.77;;;7.90;99.90;;;;;;5047059;28;20654;-68
2023/02/24 08:12:10;;;;;;;10.60;8.07;;;7.90;99.90;;;;;;5045262;28;20654;-69
2023/02/24 08:14:43;;;;;;;11.03;5.20;;;7.90;99.90;;;;;;5034742;28;21031;-68
2023/02/24 08:17:18;;;;;;;9.47;6.53;;;7.80;99.90;;;;;;5037701;28;20661;-68
2023/02/24 08:19:46;;;;;;;12.93;7.40;;;7.90;99.90;;;;;;5038794;28;20674;-67
2023/02/24 08:22:22;;;;;;;17.30;8.43;;;7.90;99.90;;;;;;5026986;28;20681;-68
2023/02/24 08:24:52;;;;;;;12.43;6.70;;;7.90;99.90;;;;;;5037032;28;20638;-68
2023/02/24 08:27:20;;;;;;;9.20;5.90;;;7.90;99.90;;;;;;5028722;28;20669;-68
2023/02/24 08:29:59;;;;;;;13.13;7.40;;;8.00;99.90;;;;;;5044153;28;20637;-68
2023/02/24 08:32:32;;;;;;;23.80;6.93;;;8.00;99.90;;;;;;5044691;28;21219;-68
2023/02/24 08:35:01;;;;;;;14.03;6.80;;;8.00;99.90;;;;;;5042449;28;20674;-69
2023/02/24 08:37:32;;;;;;;13.13;7.50;;;8.00;99.90;;;;;;5036663;28;20999;-68
2023/02/24 08:39:59;;;;;;;9.27;5.97;;;8.10;99.90;;;;;;5046810;28;20629;-68
2023/02/24 08:42:33;;;;;;;17.00;6.03;;;8.00;99.90;;;;;;5050794;28;21024;-68
2023/02/24 08:45:00;;;;;;;6.07;5.40;;;8.10;99.90;;;;;;5027298;28;21178;-68
2023/02/24 08:47:34;;;;;;;9.00;6.83;;;8.20;99.90;;;;;;5027454;28;20716;-68
2023/02/24 08:50:05;;;;;;;14.03;7.60;;;8.40;99.90;;;;;;5026067;28;20640;-68
2023/02/24 08:52:33;;;;;;;9.80;6.90;;;8.50;99.90;;;;;;5034833;28;20623;-68
2023/02/24 08:55:00;;;;;;;5.60;4.53;;;8.60;99.90;;;;;;5035243;28;20626;-68
2023/02/24 08:57:27;;;;;;;6.67;5.53;;;8.70;99.90;;;;;;5027053;28;20687;-68
2023/02/24 08:59:57;;;;;;;16.60;5.83;;;8.80;99.90;;;;;;5032325;28;20627;-68
2023/02/24 09:02:28;;;;;;;14.20;7.73;;;8.90;99.90;;;;;;5038853;28;20674;-68
2023/02/24 09:05:02;;;;;;;13.47;7.07;;;9.10;99.90;;;;;;5031036;28;20634;-69
2023/02/24 09:07:34;;;;;;;11.97;6.47;;;9.30;99.90;;;;;;5032373;28;20627;-68
2023/02/24 09:10:01;;;;;;;7.13;5.50;;;9.30;99.90;;;;;;5026284;28;20627;-69
2023/02/24 09:12:30;;;;;;;10.33;6.10;;;9.40;99.90;;;;;;5026620;28;20631;-68
2023/02/24 09:15:00;;;;;;;13.90;5.63;;;9.50;99.90;;;;;;5037629;28;20628;-69
2023/02/24 09:17:39;;;;;;;12.10;7.33;;;9.60;99.90;;;;;;5042191;28;20654;-68
2023/02/24 09:20:55;;;;;;;8.73;7.70;;;9.60;99.90;;;;;;5049982;28;20716;-68
2023/02/24 09:23:28;;;;;;;6.93;4.33;;;9.70;99.90;;;;;;5034974;28;20681;-70
2023/02/24 09:25:55;;;;;;;8.53;5.03;;;9.80;99.90;;;;;;5029735;28;20758;-69
2023/02/24 09:28:24;;;;;;;7.70;5.63;;;9.70;99.90;;;;;;5032877;28;20627;-69
2023/02/24 09:30:53;;;;;;;6.07;5.50;;;9.70;99.90;;;;;;5033918;28;20655;-69
2023/02/24 09:33:22;;;;;;;12.33;7.00;;;9.70;99.90;;;;;;5041803;28;20630;-69
2023/02/24 09:36:09;;;;;;;6.00;5.07;;;9.60;99.90;;;;;;5036417;28;20657;-69
2023/02/24 09:41:52;;;;;;;17.87;11.20;;;9.60;99.90;;;;;;5023744;28;20788;-69
2023/02/24 09:44:25;;;;;;;11.90;4.77;;;9.70;99.90;;;;;;5029713;28;21064;-68
2023/02/24 09:46:57;;;;;;;7.23;4.77;;;9.70;99.90;;;;;;5030054;28;20654;-69
2023/02/24 09:49:38;;;;;;;8.07;6.50;;;9.70;99.90;;;;;;5029340;28;20757;-69
2023/02/24 09:52:16;;;;;;;26.20;4.80;;;9.70;99.90;;;;;;5030045;28;20801;-68
2023/02/24 09:55:11;;;;;;;9.50;6.23;;;9.50;99.90;;;;;;5030274;28;20963;-69
2023/02/24 09:58:03;;;;;;;13.30;5.43;;;9.40;99.90;;;;;;5029452;28;20704;-69
2023/02/24 10:00:33;;;;;;;9.37;5.83;;;9.40;99.90;;;;;;5033930;28;20654;-68
2023/02/24 10:03:18;;;;;;;7.47;4.67;;;9.40;99.90;;;;;;5039326;28;21406;-69
2023/02/24 10:05:57;;;;;;;8.20;5.20;;;9.40;99.90;;;;;;5039253;28;21027;-68
2023/02/24 10:08:31;;;;;;;4.73;3.80;;;9.50;99.90;;;;;;5030286;28;20630;-69
2023/02/24 10:11:06;;;;;;;4.30;3.90;;;9.60;99.90;;;;;;5029808;28;20655;-69
2023/02/24 10:13:37;;;;;;;17.90;3.30;;;9.60;99.90;;;;;;5036210;28;20990;-68
2023/02/24 10:16:10;;;;;;;11.80;4.10;;;9.60;99.90;;;;;;5038164;28;20736;-69
2023/02/24 10:18:43;;;;;;;10.23;2.70;;;9.70;99.90;;;;;;5029044;28;20629;-68
2023/02/24 10:21:29;;;;;;;3.70;2.50;;;9.80;99.90;;;;;;5029424;28;20753;-68
2023/02/24 10:24:07;;;;;;;7.63;2.80;;;9.70;99.90;;;;;;5048204;28;20631;-69
2023/02/24 10:26:44;;;;;;;8.37;4.20;;;9.80;99.90;;;;;;5047588;28;20657;-69
2023/02/24 10:29:26;;;;;;;7.10;3.37;;;10.00;99.90;;;;;;5034443;28;20635;-69
2023/02/24 10:32:05;;;;;;;5.03;3.37;;;9.90;99.90;;;;;;5037226;28;21004;-70
2023/02/24 10:34:33;;;;;;;3.93;2.43;;;10.00;99.90;;;;;;5037274;28;20841;-68
2023/02/24 10:37:05;;;;;;;10.97;4.17;;;10.00;99.90;;;;;;5047811;28;21067;-69
2023/02/24 10:39:33;;;;;;;4.33;2.53;;;9.90;99.90;;;;;;5048812;28;21171;-69
2023/02/24 10:42:15;;;;;;;4.40;2.27;;;10.00;99.90;;;;;;5040684;28;20658;-69
2023/02/24 10:44:50;;;;;;;5.53;2.77;;;10.00;99.90;;;;;;5048616;28;20625;-69
2023/02/24 10:47:19;;;;;;;3.93;2.73;;;9.90;99.90;;;;;;5033778;28;20661;-68
2023/02/24 10:49:58;;;;;;;5.73;2.37;;;10.00;99.90;;;;;;5031086;28;21000;-68
2023/02/24 10:52:36;;;;;;;4.00;2.83;;;10.00;99.90;;;;;;5029640;28;20681;-69
2023/02/24 10:55:26;;;;;;;2.83;2.60;;;9.90;99.90;;;;;;5048771;28;20712;-69
2023/02/24 10:58:04;;;;;;;4.80;2.63;;;9.90;99.90;;;;;;5049919;28;20646;-70
2023/02/24 11:03:34;;;;;;;3.37;3.07;;;9.80;99.90;;;;;;5029775;28;20659;-69
2023/02/24 11:06:19;;;;;;;6.53;3.03;;;9.70;99.90;;;;;;5027924;28;20670;-69
2023/02/24 11:09:07;;;;;;;3.30;1.70;;;9.70;99.90;;;;;;5029487;28;20626;-69
2023/02/24 11:17:16;;;;;;;5.57;3.27;;;9.50;99.90;;;;;;5039152;28;21037;-69
2023/02/24 11:19:47;;;;;;;3.10;2.80;;;9.60;99.90;;;;;;5047868;28;20630;-69
2023/02/24 11:22:17;;;;;;;3.70;3.37;;;9.60;99.90;;;;;;5040712;28;20679;-70
2023/02/24 11:24:45;;;;;;;3.37;2.97;;;9.60;99.90;;;;;;5028711;28;20622;-69
2023/02/24 11:27:16;;;;;;;7.53;4.93;;;9.50;99.90;;;;;;5036913;28;21006;-69
2023/02/24 11:29:59;;;;;;;2.50;2.30;;;9.50;99.90;;;;;;5047921;28;20618;-69
2023/02/24 11:32:38;;;;;;;3.80;3.40;;;9.50;99.90;;;;;;5039514;28;20659;-69
2023/02/24 11:35:12;;;;;;;7.93;4.37;;;9.50;99.90;;;;;;5027550;28;20730;-69
2023/02/24 11:37:43;;;;;;;2.20;2.03;;;9.40;99.90;;;;;;5046962;28;20642;-69
2023/02/24 11:40:17;;;;;;;9.47;4.90;;;9.40;99.90;;;;;;5049524;28;20634;-70
2023/02/24 11:42:51;;;;;;;3.77;2.90;;;9.40;99.90;;;;;;5047009;28;20777;-68
2023/02/24 11:45:29;;;;;;;6.70;3.90;;;9.40;99.90;;;;;;5040529;28;21290;-68
2023/02/24 11:48:01;;;;;;;3.40;3.00;;;9.40;99.90;;;;;;5046564;28;20627;-69
2023/02/24 11:50:42;;;;;;;6.93;3.43;;;9.40;99.90;;;;;;5047620;28;20666;-68
2023/02/24 11:53:20;;;;;;;4.33;3.93;;;9.40;99.90;;;;;;5034815;28;20631;-69
2023/02/24 11:55:57;;;;;;;6.10;3.53;;;9.50;99.90;;;;;;5036471;28;20643;-68
2023/02/24 11:58:34;;;;;;;5.63;3.57;;;9.50;99.90;;;;;;5031100;28;20623;-69
2023/02/24 12:01:05;;;;;;;6.10;3.27;;;9.50;99.90;;;;;;5028513;28;20659;-68
2023/02/24 12:03:37;;;;;;;6.57;3.20;;;9.50;99.90;;;;;;5042853;28;20666;-69
2023/02/24 12:06:14;;;;;;;13.57;3.77;;;9.60;99.90;;;;;;5032190;28;20990;-69
2023/02/24 12:08:45;;;;;;;8.33;2.90;;;9.50;99.90;;;;;;5046248;28;20642;-70
2023/02/24 12:11:20;;;;;;;6.37;4.20;;;9.70;99.90;;;;;;5032889;28;20656;-69
2023/02/24 12:13:53;;;;;;;8.80;4.13;;;9.70;99.90;;;;;;5028781;28;20626;-68
2023/02/24 12:16:25;;;;;;;3.23;2.93;;;9.80;99.90;;;;;;5031935;28;20658;-68
2023/02/24 12:18:58;;;;;;;9.10;2.80;;;9.80;99.90;;;;;;5032287;28;20634;-69
2023/02/24 12:21:32;;;;;;;6.90;4.33;;;9.90;99.90;;;;;;5031020;28;21465;-68
2023/02/24 12:24:04;;;;;;;9.70;3.30;;;10.10;99.90;;;;;;5028651;28;20623;-69
2023/02/24 12:26:41;;;;;;;5.70;4.23;;;10.30;99.90;;;;;;5034759;28;20789;-69
2023/02/24 12:29:34;;;;;;;4.53;3.60;;;10.30;99.90;;;;;;5029763;28;20677;-68
2023/02/24 12:32:10;;;;;;;6.33;3.20;;;10.30;99.90;;;;;;5027353;28;20647;-68
2023/02/24 12:34:47;;;;;;;8.37;2.87;;;10.40;99.90;;;;;;5027260;28;20957;-69
2023/02/24 12:37:34;;;;;;;5.73;3.30;;;10.50;99.90;;;;;;5029827;28;20658;-69
2023/02/24 12:40:15;;;;;;;5.80;3.53;;;10.60;99.90;;;;;;5039293;28;20618;-68
2023/02/24 12:42:48;;;;;;;4.00;3.10;;;10.80;99.90;;;;;;5048246;28;20721;-68
2023/02/24 12:45:21;;;;;;;5.83;3.60;;;10.70;99.50;;;;;;5027886;28;20989;-68
2023/02/24 12:48:02;;;;;;;4.47;3.53;;;10.50;99.30;;;;;;5043489;28;20624;-69
2023/02/24 12:50:37;;;;;;;7.83;3.50;;;10.50;99.90;;;;;;5045870;28;20642;-69
2023/02/24 12:53:11;;;;;;;5.60;3.70;;;10.70;99.90;;;;;;5032857;28;20641;-69
2023/02/24 12:55:45;;;;;;;4.33;3.93;;;10.80;99.90;;;;;;5031499;28;20676;-68
2023/02/24 12:58:17;;;;;;;3.03;2.73;;;11.00;99.80;;;;;;5046116;28;20631;-69
2023/02/24 13:00:54;;;;;;;3.23;2.20;;;11.00;98.50;;;;;;5042061;28;20655;-69
2023/02/24 13:03:39;;;;;;;4.63;2.30;;;10.80;97.40;;;;;;5040284;28;21027;-69
2023/02/24 13:06:15;;;;;;;17.37;2.47;;;10.80;97.60;;;;;;5035289;28;20737;-68
2023/02/24 13:08:52;;;;;;;3.03;2.77;;;10.80;97.90;;;;;;5048396;28;20655;-69
2023/02/24 13:11:27;;;;;;;3.40;3.20;;;10.80;98.00;;;;;;5033205;28;20653;-69
2023/02/24 13:13:59;;;;;;;5.13;3.03;;;10.80;98.50;;;;;;5049326;28;20630;-69
2023/02/24 13:16:32;;;;;;;10.43;3.67;;;10.80;98.10;;;;;;5047660;28;20662;-69
2023/02/24 13:19:16;;;;;;;6.30;3.80;;;10.60;98.30;;;;;;5039283;28;20615;-69
2023/02/24 13:21:43;;;;;;;4.23;3.37;;;10.50;98.70;;;;;;5038049;28;20736;-68
2023/02/24 13:24:20;;;;;;;5.13;3.27;;;10.50;98.70;;;;;;5044709;28;20634;-69
2023/02/24 13:26:47;;;;;;;6.23;3.20;;;10.50;99.20;;;;;;5050411;28;20641;-69
2023/02/24 13:29:16;;;;;;;2.63;2.40;;;10.50;98.90;;;;;;5050479;28;20725;-69
2023/02/24 13:31:46;;;;;;;3.73;2.60;;;10.50;99.10;;;;;;5049679;28;21238;-68
2023/02/24 13:34:28;;;;;;;4.27;2.80;;;10.60;99.60;;;;;;5050467;28;20745;-69